Observations for ISLAY PORT ELLEN, United Kingdom (EGPI)

EGPI 201650Z 26014KT 9999 FEW041 12/08 Q1020
EGPI 201620Z 27013KT CAVOK 12/08 Q1020  
EGPI 201550Z 28015KT 9999 FEW039 BKN045 12/08 Q1020 
EGPI 201520Z 28015KT 250V310 9999 FEW025 BKN045 13/08 Q1020 
EGPI 201450Z 28019KT 9999 BKN048 12/08 Q1020
EGPI 201420Z 29015KT 9999 SCT042 12/07 Q1020
EGPI 201350Z 28017KT 9999 SCT041 13/07 Q1020
EGPI 201320Z 29015KT 9999 FEW027 13/08 Q1019
EGPI 201250Z 28016KT 9999 SCT034 14/07 Q1019
EGPI 201220Z 29014KT 9999 FEW034 14/08 Q1019
EGPI 201150Z AUTO 30015KT 270V330 9999 // NCD 13/05 Q1019   
EGPI 201120Z 30015KT 280V340 9999 FEW028 14/08 Q1018
EGPI 201050Z 30018KT 270V330 9999 FEW024 14/08 Q1018
EGPI 201020Z 31018KT 270V340 CAVOK 14/07 Q1018  
EGPI 200950Z 32018KT 290V350 CAVOK 14/06 Q1017  
EGPI 200920Z AUTO 32019KT 290V350 9999 // BKN049/// 13/08 Q1017 
EGPI 200850Z 31020KT 9999 FEW018 SCT048 13/09 Q1016 
EGPI 200820Z 32021KT 9999 SCT018 12/09 Q1016
EGPI 200750Z 33021KT 9999 FEW020 12/08 Q1015
EGPI 200720Z 33018KT 300V360 9999 FEW020 SCT033 11/09 Q1014 
EGPI 200650Z AUTO 33019KT 9999 // SCT016/// 11/08 Q1014 
EGPI 200620Z AUTO 33017KT 9999 // SCT012/// 10/09 Q1013 
EGPI 200550Z AUTO 33017KT 9999 // FEW009/// 10/09 Q1013 
EGPI 200520Z AUTO 34020KT 9999 // SCT009/// 10/09 Q1012 
EGPI 200450Z AUTO 34020KT 9999 // BKN006/// SCT028/// 10/09 Q1011   
EGPI 200420Z AUTO 34019KT 9999 // BKN004/// 10/09 Q1010 
EGPI 200350Z AUTO 34017KT 9999 // SCT005/// BKN025/// 10/10 Q1010   
EGPI 200320Z AUTO 34012KT 310V010 3000 BR BKN003/// SCT015/// 10/10 Q1009   
EGPI 200250Z AUTO VRB05KT 3900 BR OVC003/// 12/12 Q1008 
EGPI 200220Z AUTO 18005KT 150V220 2500 BR OVC003/// 13/12 Q1008 
EGPI 200150Z AUTO 15007KT 120V180 4000 BR BKN006/// 12/12 Q1008 
EGPI 200120Z AUTO 15007KT 3500 BR BKN007/// BKN014/// 12/12 Q1009   
EGPI 200050Z AUTO 13009KT 3400 BR BKN009/// SCT017/// BKN020/// 12/12 Q1009 
EGPI 200020Z AUTO 14011KT 110V170 4400 BR BKN011/// BKN023/// 12/12 Q1009   
EGPI 192350Z AUTO 14009KT 110V170 5000 BR BKN013/// 12/12 Q1009 
EGPI 192320Z AUTO 14010KT 110V170 6000 // BKN014/// 12/11 Q1009 
EGPI 192250Z AUTO 13012KT 100V160 5000 BR SCT017/// 11/11 Q1010 
EGPI 192220Z AUTO 13016KT 090V160 9999 // FEW012/// SCT018/// 12/11 Q1010   
EGPI 192150Z AUTO 11016KT 070V150 9999 // SCT012/// BKN021/// 11/10 Q1011   
EGPI 192120Z AUTO 11012KT 070V150 4800 BR FEW011/// BKN016/// 10/09 Q1011   
EGPI 192050Z AUTO 09010KT 050V130 9999 // SCT011/// SCT017/// BKN023/// 10/09 Q1012 
EGPI 192020Z AUTO 10009KT 060V130 4000 BR SCT011/// SCT029/// 09/09 Q1012   
EGPI 191950Z AUTO 11009KT 080V140 2900 BR BKN009/// BKN020/// 09/09 Q1012   
EGPI 191920Z AUTO 11010KT 080V140 3500 BR FEW007/// BKN023/// 09/09 Q1013   
EGPI 191850Z AUTO 12010KT 080V150 6000 // FEW026/// BKN034/// 10/09 Q1014   
EGPI 191820Z AUTO 13012KT 100V170 8000 // SCT004/// BKN018/// 10/09 Q1014   
EGPI 191750Z 13013KT 100V170 7000 SCT004 SCT038 10/10 Q1014 
EGPI 191720Z 14015KT 110V170 7000 -RA FEW039 BKN045 10/10 Q1015 
EGPI 191650Z 15010KT 110V170 9000 BKN038 BKN045 11/09 Q1016 
EGPI 191620Z 15010KT 110V190 9999 BKN045 12/08 Q1016